AQQ10 IFIS: Internet Flight Information System
logo dgac
Miércoles 10 de Agosto del 2022
Buscar por aerodromo o helipuerto
Ingrese nombre de aeródromo, localidad o designador OACI:
METAR del 10-08-2022 a las 18:00 UTC
Para mayor información visite www.meteochile.cl
METAR SCDA 101800Z 33007KT 290V350 9999 SCT028 17/09 Q1016
Viento: dirección 330 grados, velocidad 7 nudos
Viento con dirección variable entre 290 y 350 grados
Visibilidad: 10 km o más
Nubes: Nubosidad parcial a 2800 pies sobre el nivel del aeródromo
Temperatura: 17 °C
Rocío: 9 °C
Humedad_relativa: 59%
Presión: 1016 hPa
METAR del 10-08-2022 a las 17:00 UTC
Para mayor información visite www.meteochile.cl
METAR SCDA 101700Z 32006KT 270V350 9999 BKN028 16/09 Q1017
Viento: dirección 320 grados, velocidad 6 nudos
Viento con dirección variable entre 270 y 350 grados
Visibilidad: 10 km o más
Nubes: Nublado a 2800 pies sobre el nivel del aeródromo
Temperatura: 16 °C
Rocío: 9 °C
Humedad_relativa: 63%
Presión: 1017 hPa
METAR del 10-08-2022 a las 16:00 UTC
Para mayor información visite www.meteochile.cl
METAR SCDA 101600Z 29006KT 9999 OVC026 15/09 Q1018
Viento: dirección 290 grados, velocidad 6 nudos
Visibilidad: 10 km o más
Nubes: Cubierto a 2600 pies sobre el nivel del aeródromo
Temperatura: 15 °C
Rocío: 9 °C
Humedad_relativa: 67%
Presión: 1018 hPa
METAR del 10-08-2022 a las 15:00 UTC
Para mayor información visite www.meteochile.cl
METAR SCDA 101500Z 29005KT 260V320 9999 OVC024 15/09 Q1018
Viento: dirección 290 grados, velocidad 5 nudos
Viento con dirección variable entre 260 y 320 grados
Visibilidad: 10 km o más
Nubes: Cubierto a 2400 pies sobre el nivel del aeródromo
Temperatura: 15 °C
Rocío: 9 °C
Humedad_relativa: 67%
Presión: 1018 hPa
METAR del 10-08-2022 a las 14:00 UTC
Para mayor información visite www.meteochile.cl
METAR SCDA 101400Z 34005KT 9999 OVC021 14/09 Q1017
Viento: dirección 340 grados, velocidad 5 nudos
Visibilidad: 10 km o más
Nubes: Cubierto a 2100 pies sobre el nivel del aeródromo
Temperatura: 14 °C
Rocío: 9 °C
Humedad_relativa: 72%
Presión: 1017 hPa
METAR del 10-08-2022 a las 13:00 UTC
Para mayor información visite www.meteochile.cl
METAR SCDA 101300Z 31003KT 260V010 9999 OVC021 14/09 Q1016
Viento: dirección 310 grados, velocidad 3 nudos
Viento con dirección variable entre 260 y 010 grados
Visibilidad: 10 km o más
Nubes: Cubierto a 2100 pies sobre el nivel del aeródromo
Temperatura: 14 °C
Rocío: 9 °C
Humedad_relativa: 72%
Presión: 1016 hPa
METAR del 10-08-2022 a las 12:00 UTC
Para mayor información visite www.meteochile.cl
METAR SCDA 101200Z VRB02KT 9999 OVC022 14/09 Q1016
Viento: dirección variable, velocidad 2 nudos
Visibilidad: 10 km o más
Nubes: Cubierto a 2200 pies sobre el nivel del aeródromo
Temperatura: 14 °C
Rocío: 9 °C
Humedad_relativa: 72%
Presión: 1016 hPa
METAR del 10-08-2022 a las 11:00 UTC
Para mayor información visite www.meteochile.cl
METAR SCDA 101100Z 35003KT 310V020 9999 OVC022 14/09 Q1016
Viento: dirección 350 grados, velocidad 3 nudos
Viento con dirección variable entre 310 y 020 grados
Visibilidad: 10 km o más
Nubes: Cubierto a 2200 pies sobre el nivel del aeródromo
Temperatura: 14 °C
Rocío: 9 °C
Humedad_relativa: 72%
Presión: 1016 hPa
METAR del 10-08-2022 a las 10:00 UTC
Para mayor información visite www.meteochile.cl
METAR SCDA 101000Z 01005KT 9999 OVC021 14/09 Q1016
Viento: dirección 010 grados, velocidad 5 nudos
Visibilidad: 10 km o más
Nubes: Cubierto a 2100 pies sobre el nivel del aeródromo
Temperatura: 14 °C
Rocío: 9 °C
Humedad_relativa: 72%
Presión: 1016 hPa
METAR del 10-08-2022 a las 09:00 UTC
Para mayor información visite www.meteochile.cl
METAR SCDA 100900Z VRB04KT 9999 OVC020 14/09 Q1015
Viento: dirección variable, velocidad 4 nudos
Visibilidad: 10 km o más
Nubes: Cubierto a 2000 pies sobre el nivel del aeródromo
Temperatura: 14 °C
Rocío: 9 °C
Humedad_relativa: 72%
Presión: 1015 hPa